createdAt,value
2018-03-08T00:00:37.528Z,979.02
2018-03-08T00:01:37.518Z,978.96
2018-03-08T00:02:37.510Z,979.00
2018-03-08T00:03:37.512Z,978.98
2018-03-08T00:04:37.496Z,979.03
2018-03-08T00:05:37.490Z,979.07
2018-03-08T00:06:37.485Z,979.08
2018-03-08T00:07:37.477Z,979.07
2018-03-08T00:08:37.471Z,979.09
2018-03-08T00:09:37.464Z,979.09
2018-03-08T00:10:37.457Z,979.10
2018-03-08T00:11:37.449Z,979.15
2018-03-08T00:12:37.443Z,979.19
2018-03-08T00:13:37.437Z,979.20
2018-03-08T00:14:37.430Z,979.16
2018-03-08T00:15:37.425Z,979.16
2018-03-08T00:16:37.414Z,979.15
2018-03-08T00:17:37.408Z,979.19
2018-03-08T00:18:37.402Z,979.22
2018-03-08T00:19:37.395Z,979.28
2018-03-08T00:20:37.386Z,979.27
2018-03-08T00:21:37.382Z,979.26
2018-03-08T00:22:37.378Z,979.26
2018-03-08T00:23:37.371Z,979.29
2018-03-08T00:24:37.363Z,979.30
2018-03-08T00:25:37.354Z,979.32
2018-03-08T00:26:37.351Z,979.31
2018-03-08T00:27:37.344Z,979.31
2018-03-08T00:28:37.336Z,979.31
2018-03-08T00:29:37.329Z,979.36
2018-03-08T00:30:37.321Z,979.37
2018-03-08T00:31:37.317Z,979.38
2018-03-08T00:32:37.308Z,979.39
2018-03-08T00:33:37.301Z,979.40
2018-03-08T00:34:37.296Z,979.40
2018-03-08T00:35:37.339Z,979.46
2018-03-08T00:36:37.281Z,979.46
2018-03-08T00:37:37.274Z,979.48
2018-03-08T00:38:37.268Z,979.49
2018-03-08T00:39:37.255Z,979.49
2018-03-08T00:40:37.255Z,979.50
2018-03-08T00:41:37.246Z,979.53
2018-03-08T00:42:37.241Z,979.58
2018-03-08T00:43:37.234Z,979.54
2018-03-08T00:44:37.228Z,979.57
2018-03-08T00:45:37.223Z,979.56
2018-03-08T00:46:37.215Z,979.62
2018-03-08T00:47:37.211Z,979.54
2018-03-08T00:48:37.199Z,979.63
2018-03-08T00:49:37.196Z,979.67
2018-03-08T00:50:37.188Z,979.71
2018-03-08T00:51:37.180Z,979.65
2018-03-08T00:52:37.174Z,979.66
2018-03-08T00:53:37.167Z,979.63
2018-03-08T00:54:37.161Z,979.73
2018-03-08T00:55:37.157Z,979.69
2018-03-08T00:56:37.148Z,979.67
2018-03-08T00:57:37.142Z,979.69
2018-03-08T00:58:37.137Z,979.70
2018-03-08T00:59:37.157Z,979.72
2018-03-08T01:00:37.123Z,979.68
2018-03-08T01:01:37.120Z,979.70
2018-03-08T01:02:37.109Z,979.72
2018-03-08T01:03:37.102Z,979.73
2018-03-08T01:04:37.093Z,979.76
2018-03-08T01:05:37.088Z,979.73
2018-03-08T01:06:37.081Z,979.78
2018-03-08T01:07:37.075Z,979.77
2018-03-08T01:08:37.068Z,979.85
2018-03-08T01:09:37.061Z,979.87
2018-03-08T01:10:37.055Z,979.84
2018-03-08T01:11:37.049Z,979.86
2018-03-08T01:12:37.042Z,979.90
2018-03-08T01:13:37.035Z,979.88
2018-03-08T01:14:37.036Z,979.87
2018-03-08T01:15:37.021Z,979.89
2018-03-08T01:16:37.015Z,979.89
2018-03-08T01:17:37.009Z,979.87
2018-03-08T01:18:37.004Z,979.88
2018-03-08T01:19:36.995Z,979.90
2018-03-08T01:20:36.990Z,979.94
2018-03-08T01:21:36.982Z,979.94
2018-03-08T01:22:36.976Z,979.91
2018-03-08T01:23:36.967Z,979.91
2018-03-08T01:24:36.964Z,979.88
2018-03-08T01:25:36.955Z,979.94
2018-03-08T01:26:36.950Z,979.91
2018-03-08T01:27:36.940Z,979.92
2018-03-08T01:28:36.934Z,979.94
2018-03-08T01:29:36.928Z,979.93
2018-03-08T01:30:36.922Z,979.92
2018-03-08T01:31:36.915Z,979.89
2018-03-08T01:32:36.909Z,979.90
2018-03-08T01:33:36.902Z,979.93
2018-03-08T01:34:36.894Z,979.98
2018-03-08T01:35:36.888Z,979.98
2018-03-08T01:36:36.887Z,979.97
2018-03-08T01:37:36.876Z,979.98
2018-03-08T01:38:36.869Z,979.97
2018-03-08T01:39:36.864Z,979.97
2018-03-08T01:40:36.856Z,979.97
2018-03-08T01:41:36.849Z,979.95
2018-03-08T01:42:36.842Z,979.97
2018-03-08T01:43:36.841Z,980.02
2018-03-08T01:44:36.830Z,980.01
2018-03-08T01:45:36.824Z,980.01
2018-03-08T01:46:36.818Z,980.01
2018-03-08T01:47:36.811Z,980.04
2018-03-08T01:48:36.805Z,979.95
2018-03-08T01:49:36.797Z,979.94
2018-03-08T01:50:36.791Z,979.96
2018-03-08T01:51:36.784Z,979.95
2018-03-08T01:52:36.776Z,979.96
2018-03-08T01:53:36.769Z,979.94
2018-03-08T01:54:36.764Z,979.96
2018-03-08T01:55:36.757Z,979.95
2018-03-08T01:56:36.752Z,979.99
2018-03-08T01:57:36.745Z,979.93
2018-03-08T01:58:36.736Z,979.93
2018-03-08T01:59:36.735Z,979.92
2018-03-08T02:00:36.724Z,979.92
2018-03-08T02:01:36.717Z,979.91
2018-03-08T02:02:36.714Z,979.92
2018-03-08T02:03:36.704Z,979.96
2018-03-08T02:04:36.697Z,979.96
2018-03-08T02:05:36.694Z,979.97
2018-03-08T02:06:36.684Z,979.96
2018-03-08T02:07:36.680Z,979.96
2018-03-08T02:08:36.673Z,979.97
2018-03-08T02:09:36.664Z,979.99
2018-03-08T02:10:36.659Z,980.00
2018-03-08T02:11:36.653Z,980.01
2018-03-08T02:12:36.649Z,980.00
2018-03-08T02:13:36.638Z,979.97
2018-03-08T02:14:36.634Z,980.03
2018-03-08T02:15:36.626Z,980.03
2018-03-08T02:16:36.659Z,980.06
2018-03-08T02:17:36.613Z,980.04
2018-03-08T02:18:36.636Z,980.06
2018-03-08T02:19:36.621Z,980.05
2018-03-08T02:20:36.612Z,980.09
2018-03-08T02:21:36.587Z,980.10
2018-03-08T02:22:36.581Z,980.13
2018-03-08T02:23:36.572Z,980.10
2018-03-08T02:24:36.566Z,980.12
2018-03-08T02:25:36.566Z,980.17
2018-03-08T02:26:36.556Z,980.16
2018-03-08T02:27:36.548Z,980.18
2018-03-08T02:28:36.542Z,980.20
2018-03-08T02:29:36.534Z,980.20
2018-03-08T02:30:36.541Z,980.21
2018-03-08T02:31:36.522Z,980.26
2018-03-08T02:32:36.515Z,980.24
2018-03-08T02:33:36.509Z,980.32
2018-03-08T02:34:36.502Z,980.26
2018-03-08T02:35:36.503Z,980.30
2018-03-08T02:36:36.489Z,980.30
2018-03-08T02:37:36.483Z,980.33
2018-03-08T02:38:36.477Z,980.32
2018-03-08T02:39:36.471Z,980.34
2018-03-08T02:40:36.461Z,980.39
2018-03-08T02:41:36.457Z,980.34
2018-03-08T02:42:36.453Z,980.35
2018-03-08T02:43:36.449Z,980.34
2018-03-08T02:44:36.437Z,980.33
2018-03-08T02:45:36.430Z,980.33
2018-03-08T02:46:36.423Z,980.35
2018-03-08T02:47:36.417Z,980.39
2018-03-08T02:48:36.410Z,980.42
2018-03-08T02:49:36.402Z,980.43
2018-03-08T02:50:36.400Z,980.50
2018-03-08T02:51:36.391Z,980.47
2018-03-08T02:52:36.384Z,980.49
2018-03-08T02:53:36.377Z,980.46
2018-03-08T02:54:36.371Z,980.49
2018-03-08T02:55:36.380Z,980.52
2018-03-08T02:56:36.358Z,980.49
2018-03-08T02:57:36.353Z,980.55
2018-03-08T02:58:36.346Z,980.59
2018-03-08T02:59:36.340Z,980.62
2018-03-08T03:00:36.336Z,980.56
2018-03-08T03:01:36.328Z,980.59
2018-03-08T03:02:36.320Z,980.55
2018-03-08T03:03:36.312Z,980.54
2018-03-08T03:04:36.306Z,980.59
2018-03-08T03:05:36.297Z,980.59
2018-03-08T03:06:36.295Z,980.58
2018-03-08T03:07:36.287Z,980.56
2018-03-08T03:08:36.278Z,980.58
2018-03-08T03:09:36.272Z,980.57
2018-03-08T03:10:36.266Z,980.60
2018-03-08T03:11:36.259Z,980.63
2018-03-08T03:12:36.254Z,980.60
2018-03-08T03:13:36.246Z,980.64
2018-03-08T03:14:36.241Z,980.63
2018-03-08T03:15:36.236Z,980.57
2018-03-08T03:16:36.226Z,980.59
2018-03-08T03:17:36.221Z,980.60
2018-03-08T03:18:36.213Z,980.61
2018-03-08T03:19:36.211Z,980.65
2018-03-08T03:20:36.201Z,980.66
2018-03-08T03:21:36.195Z,980.64
2018-03-08T03:22:36.190Z,980.66
2018-03-08T03:23:36.183Z,980.65
2018-03-08T03:24:36.176Z,980.66
2018-03-08T03:25:36.166Z,980.68
2018-03-08T03:26:36.162Z,980.65
2018-03-08T03:27:36.156Z,980.66
2018-03-08T03:28:36.149Z,980.67
2018-03-08T03:29:36.142Z,980.71
2018-03-08T03:30:36.138Z,980.76
2018-03-08T03:31:36.130Z,980.71
2018-03-08T03:32:36.120Z,980.72
2018-03-08T03:33:36.116Z,980.72
2018-03-08T03:34:36.112Z,980.74
2018-03-08T03:35:36.102Z,980.71
2018-03-08T03:36:36.095Z,980.76
2018-03-08T03:37:36.089Z,980.75
2018-03-08T03:38:36.082Z,980.74
2018-03-08T03:39:36.080Z,980.74
2018-03-08T03:40:36.071Z,980.69
2018-03-08T03:41:36.062Z,980.71
2018-03-08T03:42:36.056Z,980.74
2018-03-08T03:43:36.049Z,980.80
2018-03-08T03:44:36.041Z,980.73
2018-03-08T03:45:36.034Z,980.75
2018-03-08T03:46:36.032Z,980.72
2018-03-08T03:47:36.026Z,980.74
2018-03-08T03:48:36.015Z,980.74
2018-03-08T03:49:36.011Z,980.75
2018-03-08T03:50:36.003Z,980.77
2018-03-08T03:51:35.999Z,980.79
2018-03-08T03:52:35.989Z,980.78
2018-03-08T03:53:35.983Z,980.75
2018-03-08T03:54:35.977Z,980.79
2018-03-08T03:55:35.970Z,980.81
2018-03-08T03:56:35.963Z,980.85
2018-03-08T03:57:35.957Z,980.88
2018-03-08T03:58:35.951Z,980.85
2018-03-08T03:59:35.944Z,980.83
2018-03-08T04:00:35.938Z,980.86
2018-03-08T04:01:35.931Z,980.87
2018-03-08T04:02:35.928Z,980.89
2018-03-08T04:03:35.918Z,980.87
2018-03-08T04:04:35.911Z,980.90
2018-03-08T04:05:35.905Z,980.83
2018-03-08T04:06:35.904Z,980.81
2018-03-08T04:07:35.892Z,980.78
2018-03-08T04:08:35.885Z,980.81
2018-03-08T04:09:35.877Z,980.83
2018-03-08T04:10:35.871Z,980.79
2018-03-08T04:11:35.864Z,980.83
2018-03-08T04:12:35.857Z,980.82
2018-03-08T04:13:35.850Z,980.85
2018-03-08T04:14:35.844Z,980.85
2018-03-08T04:15:35.843Z,980.81
2018-03-08T04:16:35.832Z,980.82
2018-03-08T04:17:35.823Z,980.84
2018-03-08T04:18:35.818Z,980.87
2018-03-08T04:19:35.813Z,980.89
2018-03-08T04:20:35.805Z,980.89
2018-03-08T04:21:35.802Z,980.91
2018-03-08T04:22:35.794Z,980.91
2018-03-08T04:23:35.790Z,980.95
2018-03-08T04:24:35.780Z,980.95
2018-03-08T04:25:35.772Z,980.94
2018-03-08T04:26:35.769Z,980.91
2018-03-08T04:27:35.759Z,980.94
2018-03-08T04:28:35.752Z,980.98
2018-03-08T04:29:35.747Z,980.99
2018-03-08T04:30:35.741Z,980.95
2018-03-08T04:31:35.736Z,980.98
2018-03-08T04:32:35.731Z,980.99
2018-03-08T04:33:35.722Z,980.97
2018-03-08T04:34:35.713Z,981.01
2018-03-08T04:35:35.711Z,980.97
2018-03-08T04:36:35.701Z,980.95
2018-03-08T04:37:35.697Z,980.96
2018-03-08T04:38:35.689Z,980.99
2018-03-08T04:39:35.682Z,980.98
2018-03-08T04:40:35.684Z,980.99
2018-03-08T04:41:35.672Z,980.96
2018-03-08T04:42:35.662Z,980.98
2018-03-08T04:43:35.657Z,980.97
2018-03-08T04:44:35.650Z,981.03
2018-03-08T04:45:35.644Z,981.02
2018-03-08T04:46:35.641Z,981.03
2018-03-08T04:47:35.635Z,981.07
2018-03-08T04:48:35.624Z,981.00
2018-03-08T04:49:35.618Z,981.07
2018-03-08T04:50:35.612Z,981.03
2018-03-08T04:51:35.606Z,981.05
2018-03-08T04:52:35.599Z,981.08
2018-03-08T04:53:35.593Z,981.07
2018-03-08T04:54:35.589Z,981.08
2018-03-08T04:55:35.577Z,981.09
2018-03-08T04:56:35.569Z,981.11
2018-03-08T04:57:35.564Z,981.08
2018-03-08T04:58:35.556Z,981.12
2018-03-08T04:59:35.550Z,981.13
2018-03-08T05:00:35.545Z,981.14
2018-03-08T05:01:35.535Z,981.15
2018-03-08T05:02:35.526Z,981.22
2018-03-08T05:03:35.520Z,981.21
2018-03-08T05:04:35.511Z,981.19
2018-03-08T05:05:35.507Z,981.19
2018-03-08T05:06:35.503Z,981.18
2018-03-08T05:07:35.489Z,981.18
2018-03-08T05:08:35.482Z,981.15
2018-03-08T05:09:35.474Z,981.18
2018-03-08T05:10:35.467Z,981.17
2018-03-08T05:11:35.459Z,981.18
2018-03-08T05:12:35.452Z,981.14
2018-03-08T05:13:35.442Z,981.15
2018-03-08T05:14:35.435Z,981.18
2018-03-08T05:15:35.428Z,981.17
2018-03-08T05:16:35.418Z,981.17
2018-03-08T05:17:35.412Z,981.18
2018-03-08T05:18:35.402Z,981.19
2018-03-08T05:19:35.396Z,981.21
2018-03-08T05:20:35.387Z,981.22
2018-03-08T05:21:35.380Z,981.21
2018-03-08T05:22:35.375Z,981.20
2018-03-08T05:23:35.366Z,981.19
2018-03-08T05:24:35.355Z,981.23
2018-03-08T05:25:35.348Z,981.19
2018-03-08T05:26:35.340Z,981.24
2018-03-08T05:27:35.335Z,981.19
2018-03-08T05:28:35.325Z,981.24
2018-03-08T05:29:35.318Z,981.23
2018-03-08T05:30:35.308Z,981.27
2018-03-08T05:31:35.324Z,981.32
2018-03-08T05:32:35.317Z,981.32
2018-03-08T05:33:35.308Z,981.31
2018-03-08T05:34:35.277Z,981.29
2018-03-08T05:35:35.270Z,981.34
2018-03-08T05:36:35.260Z,981.35
2018-03-08T05:37:35.255Z,981.38
2018-03-08T05:38:35.245Z,981.35
2018-03-08T05:39:35.240Z,981.38
2018-03-08T05:40:35.228Z,981.41
2018-03-08T05:41:35.222Z,981.40
2018-03-08T05:42:35.213Z,981.38
2018-03-08T05:43:35.206Z,981.44
2018-03-08T05:44:35.197Z,981.43
2018-03-08T05:45:35.191Z,981.45
2018-03-08T05:46:35.184Z,981.46
2018-03-08T05:47:35.176Z,981.50
2018-03-08T05:48:35.168Z,981.53
2018-03-08T05:49:35.158Z,981.55
2018-03-08T05:50:35.151Z,981.52
2018-03-08T05:51:35.147Z,981.56
2018-03-08T05:52:35.137Z,981.55
2018-03-08T05:53:35.126Z,981.60
2018-03-08T05:54:35.161Z,981.54
2018-03-08T05:55:35.111Z,981.55
2018-03-08T05:56:35.103Z,981.59
2018-03-08T05:57:35.095Z,981.58
2018-03-08T05:58:35.090Z,981.61
2018-03-08T05:59:35.086Z,981.59
2018-03-08T06:00:35.071Z,981.57
2018-03-08T06:01:35.065Z,981.55
2018-03-08T06:02:35.057Z,981.53
2018-03-08T06:03:35.048Z,981.54
2018-03-08T06:04:35.040Z,981.56
2018-03-08T06:05:35.032Z,981.55
2018-03-08T06:06:35.025Z,981.55
2018-03-08T06:07:35.018Z,981.61
2018-03-08T06:08:35.009Z,981.59
2018-03-08T06:09:35.001Z,981.58
2018-03-08T06:10:34.993Z,981.57
2018-03-08T06:11:34.986Z,981.59
2018-03-08T06:12:34.976Z,981.63
2018-03-08T06:13:34.969Z,981.62
2018-03-08T06:14:34.966Z,981.65
2018-03-08T06:15:34.958Z,981.64
2018-03-08T06:16:34.946Z,981.62
2018-03-08T06:17:34.938Z,981.63
2018-03-08T06:18:34.938Z,981.62
2018-03-08T06:19:34.923Z,981.59
2018-03-08T06:20:34.930Z,981.62
2018-03-08T06:21:34.908Z,981.62
2018-03-08T06:22:34.896Z,981.65
2018-03-08T06:23:34.893Z,981.62
2018-03-08T06:24:34.882Z,981.67
2018-03-08T06:25:34.874Z,981.69
2018-03-08T06:26:34.867Z,981.66
2018-03-08T06:27:34.858Z,981.67
2018-03-08T06:28:34.847Z,981.64
2018-03-08T06:29:34.845Z,981.65
2018-03-08T06:30:34.835Z,981.69
2018-03-08T06:31:34.826Z,981.78
2018-03-08T06:32:34.818Z,981.73
2018-03-08T06:33:34.810Z,981.76
2018-03-08T06:34:34.801Z,981.71
2018-03-08T06:35:34.793Z,981.68
2018-03-08T06:36:34.786Z,981.67
2018-03-08T06:37:34.777Z,981.72
2018-03-08T06:38:34.771Z,981.63
2018-03-08T06:39:34.763Z,981.66
2018-03-08T06:40:34.755Z,981.64
2018-03-08T06:41:34.747Z,981.70
2018-03-08T06:42:34.740Z,981.70
2018-03-08T06:43:34.729Z,981.73
2018-03-08T06:44:34.722Z,981.74
2018-03-08T06:45:34.714Z,981.78
2018-03-08T06:46:34.707Z,981.80
2018-03-08T06:47:34.698Z,981.79
2018-03-08T06:48:34.692Z,981.79
2018-03-08T06:49:34.684Z,981.78
2018-03-08T06:50:34.676Z,981.82
2018-03-08T06:51:34.668Z,981.79
2018-03-08T06:52:34.658Z,981.78
2018-03-08T06:53:34.652Z,981.82
2018-03-08T06:54:34.643Z,981.83
2018-03-08T06:55:34.635Z,981.84
2018-03-08T06:56:34.627Z,981.86
2018-03-08T06:57:34.620Z,981.89
2018-03-08T06:58:34.612Z,981.88
2018-03-08T06:59:34.604Z,981.92
2018-03-08T07:00:34.594Z,981.95
2018-03-08T07:01:34.582Z,981.96
2018-03-08T07:02:34.579Z,981.96
2018-03-08T07:03:34.578Z,981.93
2018-03-08T07:04:34.565Z,981.90
2018-03-08T07:05:34.555Z,981.90
2018-03-08T07:06:34.548Z,981.90
2018-03-08T07:07:34.537Z,981.89
2018-03-08T07:08:34.536Z,981.92
2018-03-08T07:09:34.522Z,981.91
2018-03-08T07:10:34.519Z,982.01
2018-03-08T07:11:34.510Z,981.98
2018-03-08T07:12:34.505Z,981.98
2018-03-08T07:13:34.492Z,982.00
2018-03-08T07:14:34.485Z,982.01
2018-03-08T07:15:34.478Z,982.03
2018-03-08T07:16:34.468Z,982.05
2018-03-08T07:17:34.463Z,982.07
2018-03-08T07:18:34.456Z,982.02
2018-03-08T07:19:34.476Z,982.08
2018-03-08T07:20:34.435Z,982.05
2018-03-08T07:21:34.430Z,982.06
2018-03-08T07:22:34.425Z,982.07
2018-03-08T07:23:34.417Z,982.06
2018-03-08T07:24:34.405Z,982.04
2018-03-08T07:25:34.401Z,982.01
2018-03-08T07:26:34.391Z,982.05
2018-03-08T07:27:34.383Z,982.06
2018-03-08T07:28:34.376Z,982.06
2018-03-08T07:29:34.366Z,982.06
2018-03-08T07:30:34.364Z,982.09
2018-03-08T07:31:34.351Z,982.12
2018-03-08T07:32:34.341Z,982.12
2018-03-08T07:33:34.334Z,982.11
2018-03-08T07:34:34.326Z,982.03
2018-03-08T07:35:34.319Z,982.05
2018-03-08T07:36:34.341Z,982.05
2018-03-08T07:37:34.298Z,981.98
2018-03-08T07:38:34.295Z,981.96
2018-03-08T07:39:34.288Z,981.97
2018-03-08T07:40:34.278Z,981.99
2018-03-08T07:41:34.269Z,981.98
2018-03-08T07:42:34.264Z,981.98
2018-03-08T07:43:34.256Z,981.96
2018-03-08T07:44:34.247Z,982.00
2018-03-08T07:45:34.240Z,981.98
2018-03-08T07:46:34.234Z,981.97
2018-03-08T07:47:34.225Z,981.98
2018-03-08T07:48:34.226Z,982.00
2018-03-08T07:49:34.210Z,981.94
2018-03-08T07:50:34.203Z,981.94
2018-03-08T07:51:34.195Z,982.00
2018-03-08T07:52:34.213Z,982.00
2018-03-08T07:53:34.180Z,981.98
2018-03-08T07:54:34.176Z,981.99
2018-03-08T07:55:34.165Z,981.98
2018-03-08T07:56:34.158Z,982.02
2018-03-08T07:57:34.150Z,981.99
2018-03-08T07:58:34.144Z,982.01
2018-03-08T07:59:34.138Z,981.98
2018-03-08T08:00:34.127Z,981.98
2018-03-08T08:01:34.124Z,981.97
2018-03-08T08:02:34.115Z,981.98
2018-03-08T08:03:34.108Z,982.00
2018-03-08T08:04:34.100Z,982.03
2018-03-08T08:05:34.092Z,982.05
2018-03-08T08:06:34.087Z,982.02
2018-03-08T08:07:34.083Z,982.05
2018-03-08T08:08:34.083Z,982.02
2018-03-08T08:09:34.064Z,982.04
2018-03-08T08:10:34.121Z,981.99
2018-03-08T08:11:34.050Z,982.02
2018-03-08T08:12:34.044Z,982.02
2018-03-08T08:13:34.034Z,981.99
2018-03-08T08:14:34.028Z,981.96
2018-03-08T08:15:34.023Z,982.00
2018-03-08T08:16:34.016Z,981.93
2018-03-08T08:17:34.005Z,981.92
2018-03-08T08:18:33.999Z,981.95
2018-03-08T08:19:33.991Z,981.92
2018-03-08T08:20:33.984Z,981.83
2018-03-08T08:21:33.996Z,981.87
2018-03-08T08:22:33.970Z,981.82
2018-03-08T08:23:33.963Z,981.81
2018-03-08T08:24:33.961Z,981.80
2018-03-08T08:25:33.950Z,981.84
2018-03-08T08:26:33.943Z,981.85
2018-03-08T08:27:33.937Z,981.96
2018-03-08T08:28:33.926Z,982.01
2018-03-08T08:29:33.921Z,981.95
2018-03-08T08:30:33.917Z,981.94
2018-03-08T08:31:33.908Z,981.95
2018-03-08T08:32:33.898Z,981.98
2018-03-08T08:33:33.893Z,981.94
2018-03-08T08:34:54.898Z,981.96
2018-03-08T08:35:33.881Z,981.88
2018-03-08T08:36:33.870Z,981.94
2018-03-08T08:37:33.862Z,981.88
2018-03-08T08:38:33.858Z,981.81
2018-03-08T08:39:33.849Z,981.94
2018-03-08T08:40:33.844Z,981.97
2018-03-08T08:41:33.833Z,981.92
2018-03-08T08:42:33.831Z,981.94
2018-03-08T08:43:33.819Z,981.98
2018-03-08T08:44:33.812Z,981.94
2018-03-08T08:45:33.804Z,981.95
2018-03-08T08:46:33.800Z,981.94
2018-03-08T08:47:33.791Z,981.95
2018-03-08T08:48:33.782Z,981.98
2018-03-08T08:49:33.779Z,981.92
2018-03-08T08:50:33.770Z,981.92
2018-03-08T08:51:33.763Z,981.88
2018-03-08T08:52:33.754Z,981.93
2018-03-08T08:53:33.747Z,981.90
2018-03-08T08:54:33.795Z,981.90
2018-03-08T08:55:33.734Z,981.92
2018-03-08T08:56:33.728Z,981.93
2018-03-08T08:57:33.719Z,981.97
2018-03-08T08:58:33.713Z,981.98
2018-03-08T08:59:33.706Z,981.94
2018-03-08T09:00:33.696Z,982.00
2018-03-08T09:01:33.692Z,981.98
2018-03-08T09:02:33.684Z,982.02
2018-03-08T09:03:33.678Z,982.04
2018-03-08T09:04:33.671Z,982.08
2018-03-08T09:05:33.663Z,982.04
2018-03-08T09:06:33.656Z,982.04
2018-03-08T09:07:33.672Z,982.01
2018-03-08T09:08:33.642Z,982.02
2018-03-08T09:09:33.635Z,982.02
2018-03-08T09:10:33.629Z,982.04
2018-03-08T09:11:33.623Z,982.02
2018-03-08T09:12:33.613Z,982.07
2018-03-08T09:13:33.607Z,982.06
2018-03-08T09:14:33.600Z,981.99
2018-03-08T09:15:33.593Z,982.00
2018-03-08T09:16:33.585Z,981.99
2018-03-08T09:17:33.580Z,982.05
2018-03-08T09:18:33.571Z,982.06
2018-03-08T09:19:33.565Z,982.01
2018-03-08T09:20:33.592Z,982.04
2018-03-08T09:21:33.578Z,982.04
2018-03-08T09:22:33.590Z,982.06
2018-03-08T09:23:33.536Z,982.00
2018-03-08T09:24:33.552Z,982.11
2018-03-08T09:25:33.525Z,982.11
2018-03-08T09:26:33.513Z,982.06
2018-03-08T09:27:33.514Z,982.02
2018-03-08T09:28:33.501Z,981.98
2018-03-08T09:29:33.496Z,982.01
2018-03-08T09:30:33.487Z,982.02
2018-03-08T09:31:33.480Z,982.01
2018-03-08T09:32:33.471Z,982.02
2018-03-08T09:33:33.469Z,982.02
2018-03-08T09:34:33.458Z,982.02
2018-03-08T09:35:33.452Z,981.99
2018-03-08T09:36:33.474Z,982.01
2018-03-08T09:37:33.437Z,981.95
2018-03-08T09:38:33.437Z,981.98
2018-03-08T09:39:33.424Z,982.01
2018-03-08T09:40:33.418Z,982.04
2018-03-08T09:41:33.411Z,981.99
2018-03-08T09:42:33.403Z,982.00
2018-03-08T09:43:33.397Z,981.97
2018-03-08T09:44:33.387Z,981.99
2018-03-08T09:45:33.381Z,981.99
2018-03-08T09:46:33.375Z,982.03
2018-03-08T09:47:33.370Z,981.97
2018-03-08T09:48:33.360Z,982.00
2018-03-08T09:49:33.355Z,982.03
2018-03-08T09:50:33.346Z,982.02
2018-03-08T09:51:33.341Z,981.94
2018-03-08T09:52:33.332Z,981.93
2018-03-08T09:53:33.327Z,981.97
2018-03-08T09:54:33.322Z,981.96
2018-03-08T09:55:33.314Z,981.94
2018-03-08T09:56:33.306Z,981.91
2018-03-08T09:57:33.300Z,981.88
2018-03-08T09:58:33.294Z,981.89
2018-03-08T09:59:33.286Z,981.84
2018-03-08T10:00:33.277Z,981.85
2018-03-08T10:01:33.278Z,981.89
2018-03-08T10:02:33.268Z,981.90
2018-03-08T10:03:33.284Z,981.90
2018-03-08T10:04:33.254Z,981.88
2018-03-08T10:05:33.298Z,981.82
2018-03-08T10:06:33.242Z,981.82
2018-03-08T10:07:33.237Z,981.82
2018-03-08T10:08:33.227Z,981.76
2018-03-08T10:09:33.223Z,981.79
2018-03-08T10:10:33.217Z,981.82
2018-03-08T10:11:33.212Z,981.81
2018-03-08T10:12:33.206Z,981.80
2018-03-08T10:13:33.199Z,981.75
2018-03-08T10:14:33.191Z,981.70
2018-03-08T10:15:33.185Z,981.69
2018-03-08T10:16:33.179Z,981.70
2018-03-08T10:17:33.172Z,981.66
2018-03-08T10:18:33.164Z,981.64
2018-03-08T10:19:33.160Z,981.64
2018-03-08T10:20:33.153Z,981.70
2018-03-08T10:21:45.061Z,981.72
2018-03-08T10:22:33.184Z,981.68
2018-03-08T10:23:33.134Z,981.68
2018-03-08T10:24:33.128Z,981.70
2018-03-08T10:25:33.115Z,981.69
2018-03-08T10:26:33.113Z,981.67
2018-03-08T10:27:33.106Z,981.63
2018-03-08T10:28:33.101Z,981.65
2018-03-08T10:29:33.093Z,981.60
2018-03-08T10:30:33.086Z,981.62
2018-03-08T10:31:33.080Z,981.57
2018-03-08T10:32:33.073Z,981.50
2018-03-08T10:33:33.065Z,981.62
2018-03-08T10:34:33.059Z,981.56
2018-03-08T10:35:47.807Z,981.59
2018-03-08T10:36:33.047Z,981.53
2018-03-08T10:37:33.040Z,981.50
2018-03-08T10:38:33.035Z,981.53
2018-03-08T10:39:33.028Z,981.54
2018-03-08T10:43:33.001Z,981.54
2018-03-08T10:44:32.992Z,981.52
2018-03-08T10:45:32.989Z,981.53
2018-03-08T10:46:32.979Z,981.56
2018-03-08T10:47:32.974Z,981.50
2018-03-08T10:48:32.965Z,981.54
2018-03-08T10:49:32.963Z,981.41
2018-03-08T10:50:32.954Z,981.47
2018-03-08T10:51:32.946Z,981.44
2018-03-08T10:52:32.941Z,981.45
2018-03-08T10:53:32.937Z,981.47
2018-03-08T10:54:32.926Z,981.48
2018-03-08T10:55:32.920Z,981.47
2018-03-08T10:56:32.912Z,981.49
2018-03-08T10:57:32.908Z,981.48
2018-03-08T10:58:33.250Z,981.49
2018-03-08T10:59:32.893Z,981.43
2018-03-08T11:00:32.902Z,981.48
2018-03-08T11:01:32.882Z,981.55
2018-03-08T11:02:32.874Z,981.61
2018-03-08T11:03:32.870Z,981.54
2018-03-08T11:04:32.862Z,981.54
2018-03-08T11:05:32.855Z,981.57
2018-03-08T11:06:32.849Z,981.53
2018-03-08T11:07:32.842Z,981.53
2018-03-08T11:08:32.836Z,981.50
2018-03-08T11:09:32.830Z,981.53
2018-03-08T11:10:32.822Z,981.44
2018-03-08T11:11:32.816Z,981.43
2018-03-08T11:12:32.814Z,981.42
2018-03-08T11:13:32.800Z,981.42
2018-03-08T11:14:32.793Z,981.45
2018-03-08T11:15:32.787Z,981.47
2018-03-08T11:16:32.780Z,981.44
2018-03-08T11:17:32.774Z,981.38
2018-03-08T11:18:32.771Z,981.42
2018-03-08T11:19:32.760Z,981.43
2018-03-08T11:20:32.753Z,981.38
2018-03-08T11:21:32.746Z,981.42
2018-03-08T11:22:32.741Z,981.44
2018-03-08T11:23:32.732Z,981.36
2018-03-08T11:24:32.727Z,981.39
2018-03-08T11:25:32.720Z,981.34
2018-03-08T11:26:32.712Z,981.36
2018-03-08T11:27:32.706Z,981.32
2018-03-08T11:28:32.697Z,981.33
2018-03-08T11:29:32.690Z,981.34
2018-03-08T11:30:32.684Z,981.40
2018-03-08T11:31:32.678Z,981.33
2018-03-08T11:32:32.669Z,981.28
2018-03-08T11:33:32.664Z,981.28
2018-03-08T11:34:32.654Z,981.26
2018-03-08T11:35:32.649Z,981.23
2018-03-08T11:36:32.640Z,981.16
2018-03-08T11:37:32.634Z,981.21
2018-03-08T11:38:32.629Z,981.14
2018-03-08T11:39:34.095Z,981.12
2018-03-08T11:40:32.611Z,981.11
2018-03-08T11:41:32.605Z,981.13
2018-03-08T11:42:32.600Z,981.16
2018-03-08T11:43:32.594Z,981.14
2018-03-08T11:44:32.584Z,981.10
2018-03-08T11:45:32.587Z,981.07
2018-03-08T11:46:32.573Z,981.07
2018-03-08T11:47:32.562Z,981.00
2018-03-08T11:48:33.810Z,981.07
2018-03-08T11:49:32.548Z,981.08
2018-03-08T11:50:32.542Z,981.01
2018-03-08T11:51:32.538Z,981.05
2018-03-08T11:52:32.532Z,980.99
2018-03-08T11:53:33.687Z,981.03
2018-03-08T11:54:32.514Z,980.96
2018-03-08T11:55:32.507Z,980.99
2018-03-08T11:56:32.500Z,981.02
2018-03-08T11:57:32.494Z,981.01
2018-03-08T11:58:32.487Z,981.04
2018-03-08T11:59:32.480Z,981.05
2018-03-08T12:00:32.473Z,981.03
2018-03-08T12:01:32.467Z,980.98
2018-03-08T12:02:32.458Z,980.94
2018-03-08T12:03:32.451Z,980.85
2018-03-08T12:04:32.443Z,980.88
2018-03-08T12:05:32.437Z,980.92
2018-03-08T12:06:32.429Z,980.85
2018-03-08T12:07:32.423Z,980.86
2018-03-08T12:08:32.415Z,980.90
2018-03-08T12:09:32.410Z,980.86
2018-03-08T12:10:32.403Z,980.81
2018-03-08T12:11:32.394Z,980.83
2018-03-08T12:12:32.390Z,980.83
2018-03-08T12:13:32.379Z,980.82
2018-03-08T12:14:32.379Z,980.74
2018-03-08T12:15:32.369Z,980.77
2018-03-08T12:16:32.354Z,980.73
2018-03-08T12:17:32.350Z,980.71
2018-03-08T12:18:32.344Z,980.75
2018-03-08T12:19:32.337Z,980.72
2018-03-08T12:20:32.330Z,980.73
2018-03-08T12:21:32.322Z,980.73
2018-03-08T12:22:32.315Z,980.66
2018-03-08T12:23:32.313Z,980.70
2018-03-08T12:24:32.302Z,980.65
2018-03-08T12:25:32.294Z,980.61
2018-03-08T12:26:32.293Z,980.65
2018-03-08T12:27:32.281Z,980.65
2018-03-08T12:28:32.272Z,980.66
2018-03-08T12:29:32.266Z,980.63
2018-03-08T12:30:32.259Z,980.63
2018-03-08T12:31:32.255Z,980.64